Time;durP1;ratioP1;P1;durP2;ratioP2;P2;SDS_P1;SDS_P2;PMS_P1;PMS_P2;Temp;Humidity;BMP_temperature;BMP_pressure;BME280_temperature;BME280_humidity;BME280_pressure;Samples;Min_cycle;Max_cycle;Signal;HPM_P1;HPM_P2
2022/05/10 00:02:03;;;;;;;12.37;5.85;;;;;;;13.19;71.54;99686.73;1694091;83;21509;-81
2022/05/10 00:04:30;;;;;;;13.40;5.80;;;;;;;13.17;69.20;99675.05;1684552;84;21897;-80
2022/05/10 00:06:57;;;;;;;15.75;6.42;;;;;;;13.16;69.97;99677.69;1689374;84;21048;-81
2022/05/10 00:09:29;;;;;;;10.78;4.70;;;;;;;13.14;71.59;99672.50;1688922;84;20964;-80
2022/05/10 00:11:59;;;;;;;13.40;4.67;;;;;;;13.14;70.91;99677.72;1698511;84;20987;-79
2022/05/10 00:14:29;;;;;;;11.63;4.62;;;;;;;13.12;72.85;99674.30;1697968;84;20968;-79
2022/05/10 00:16:56;;;;;;;7.92;4.83;;;;;;;13.09;71.05;99671.33;1698524;84;21043;-81
2022/05/10 00:19:27;;;;;;;11.55;5.17;;;;;;;13.10;71.74;99674.78;1694053;84;20972;-79
2022/05/10 00:21:52;;;;;;;11.65;4.95;;;;;;;13.10;72.12;99670.88;1697954;84;20956;-81
2022/05/10 00:24:19;;;;;;;10.25;5.05;;;;;;;13.11;72.56;99676.48;1674608;84;21008;-80
2022/05/10 00:26:48;;;;;;;10.50;4.90;;;;;;;13.16;72.88;99669.86;1692249;84;20972;-80
2022/05/10 00:29:16;;;;;;;10.23;5.50;;;;;;;13.18;72.30;99671.52;1686579;84;21043;-82
2022/05/10 00:31:44;;;;;;;8.95;5.35;;;;;;;13.20;72.56;99664.96;1698655;84;20991;-80
2022/05/10 00:34:13;;;;;;;10.63;5.72;;;;;;;13.22;70.83;99671.00;1671994;84;20996;-78
2022/05/10 00:36:40;;;;;;;12.75;6.12;;;;;;;13.19;71.83;99664.11;1688495;84;21530;-81
2022/05/10 00:39:06;;;;;;;12.25;6.00;;;;;;;13.17;70.66;99663.72;1690323;84;21039;-81
2022/05/10 00:41:38;;;;;;;12.15;5.47;;;;;;;13.11;71.75;99665.62;1686242;84;20999;-81
2022/05/10 00:44:28;;;;;;;11.65;5.33;;;;;;;13.04;71.23;99661.90;1695006;84;20999;-80
2022/05/10 00:47:18;;;;;;;11.88;5.67;;;;;;;13.00;72.67;99659.81;1689236;84;20956;-81
2022/05/10 00:50:01;;;;;;;11.95;6.33;;;;;;;12.96;72.37;99663.86;1693112;83;21007;-77
2022/05/10 00:52:37;;;;;;;;;;;;;;;12.91;71.54;99662.64;1714036;84;21053;-77
2022/05/10 00:55:44;;;;;;;8.85;5.45;;;;;;;12.86;73.20;99658.86;1682536;84;20099;-78
2022/05/10 00:58:41;;;;;;;13.20;6.28;;;;;;;12.82;72.16;99654.62;1674669;84;20999;-79
2022/05/10 01:01:11;;;;;;;10.10;5.53;;;;;;;12.75;74.06;99654.34;1690633;84;20987;-79
2022/05/10 01:03:46;;;;;;;10.93;5.67;;;;;;;12.73;74.17;99658.75;1684158;84;20980;-81
2022/05/10 01:06:36;;;;;;;11.63;5.90;;;;;;;12.71;74.20;99656.20;1688898;84;21039;-80
2022/05/10 01:09:29;;;;;;;9.73;5.17;;;;;;;12.71;73.24;99653.59;1689997;84;20964;-79
2022/05/10 01:12:04;;;;;;;10.85;5.17;;;;;;;12.71;73.41;99654.02;1698893;84;20964;-78
2022/05/10 01:14:39;;;;;;;12.82;5.53;;;;;;;12.70;71.72;99650.56;1696203;84;21003;-79
2022/05/10 01:17:05;;;;;;;11.55;5.28;;;;;;;12.68;72.04;99648.89;1688009;84;21071;-79
2022/05/10 01:19:31;;;;;;;12.80;5.83;;;;;;;12.70;74.03;99653.62;1685226;84;21491;-81
2022/05/10 01:22:15;;;;;;;12.10;5.60;;;;;;;12.69;73.12;99654.08;1686649;84;20960;-81
2022/05/10 01:25:08;;;;;;;11.85;5.97;;;;;;;12.69;74.13;99654.08;1698685;84;21097;-80
2022/05/10 01:28:12;;;;;;;9.98;5.50;;;;;;;12.70;74.39;99653.17;1695792;84;21570;-80
2022/05/10 01:30:39;;;;;;;11.55;5.75;;;;;;;12.73;76.11;99648.31;1680534;84;21031;-80
2022/05/10 01:33:31;;;;;;;10.08;5.83;;;;;;;12.74;74.49;99646.12;1679667;84;20967;-80
2022/05/10 01:36:25;;;;;;;10.32;5.42;;;;;;;12.79;74.26;99640.33;1695356;84;20991;-78
2022/05/10 01:39:19;;;;;;;8.65;5.20;;;;;;;12.75;74.43;99646.52;1681477;84;20987;-79
2022/05/10 01:42:09;;;;;;;10.85;5.75;;;;;;;12.78;74.26;99634.72;1695455;83;21026;-80
2022/05/10 01:45:11;;;;;;;12.30;5.53;;;;;;;12.85;74.80;99641.93;1672286;84;21281;-79
2022/05/10 01:47:56;;;;;;;12.88;5.70;;;;;;;12.89;74.47;99632.70;1682820;84;21001;-80
2022/05/10 01:50:48;;;;;;;9.95;5.83;;;;;;;12.93;73.56;99638.24;1691111;84;21036;-80
2022/05/10 01:53:20;;;;;;;11.85;5.67;;;;;;;12.95;74.82;99634.27;1687889;84;20979;-80
2022/05/10 01:55:53;;;;;;;9.58;5.30;;;;;;;12.93;73.68;99634.76;1695151;84;21503;-80
2022/05/10 01:58:27;;;;;;;10.35;5.28;;;;;;;12.91;75.22;99637.85;1692731;84;20964;-82
2022/05/10 02:01:01;;;;;;;11.75;5.87;;;;;;;12.87;75.53;99625.36;1697652;83;21003;-78
2022/05/10 02:03:54;;;;;;;12.85;6.10;;;;;;;12.85;73.54;99638.89;1688245;84;21480;-81
2022/05/10 02:06:34;;;;;;;9.63;5.40;;;;;;;12.81;72.64;99632.05;1692484;84;21024;-81
2022/05/10 02:09:31;;;;;;;9.18;5.10;;;;;;;12.75;73.77;99632.17;1688059;83;20979;-79
2022/05/10 02:12:04;;;;;;;9.73;5.33;;;;;;;12.69;73.43;99635.82;1696825;84;20996;-80
2022/05/10 02:14:36;;;;;;;9.15;5.22;;;;;;;12.67;75.29;99634.12;1687458;84;21063;-78
2022/05/10 02:17:07;;;;;;;9.38;5.28;;;;;;;12.64;74.67;99633.77;1696873;83;21083;-82
2022/05/10 02:20:22;;;;;;;10.68;4.95;;;;;;;12.61;72.72;99640.34;1689787;83;20988;-79
2022/05/10 02:23:06;;;;;;;9.50;5.20;;;;;;;12.56;72.67;99640.92;1696611;84;21000;-82
2022/05/10 02:25:39;;;;;;;10.72;5.00;;;;;;;12.50;75.28;99638.01;1674937;84;20967;-78
2022/05/10 02:28:36;;;;;;;11.28;4.97;;;;;;;12.49;75.34;99644.56;1690070;84;20996;-80
2022/05/10 02:31:22;;;;;;;11.15;5.25;;;;;;;12.48;76.35;99638.49;1666545;84;21456;-82
2022/05/10 02:33:51;;;;;;;10.90;5.17;;;;;;;12.48;75.48;99635.89;1677902;84;20972;-79
2022/05/10 02:36:18;;;;;;;12.25;6.28;;;;;;;12.47;75.98;99639.41;1697138;84;21004;-79
2022/05/10 02:38:46;;;;;;;10.13;5.08;;;;;;;12.47;75.54;99634.19;1691711;83;20990;-81
2022/05/10 02:41:18;;;;;;;9.75;5.00;;;;;;;12.50;75.57;99635.86;1672602;85;21018;-81
2022/05/10 02:43:50;;;;;;;11.28;4.85;;;;;;;12.53;76.03;99632.73;1698380;84;21035;-79
2022/05/10 02:46:18;;;;;;;8.35;4.50;;;;;;;12.57;75.07;99636.09;1742131;81;21546;-78
2022/05/10 02:48:47;;;;;;;10.48;5.08;;;;;;;12.59;75.50;99630.84;1751767;82;21431;-79
2022/05/10 02:51:14;;;;;;;15.10;5.40;;;;;;;12.59;76.44;99634.77;1755851;81;20971;-78
2022/05/10 02:53:41;;;;;;;10.72;5.35;;;;;;;12.56;74.95;99629.64;1755593;82;20952;-79
2022/05/10 02:56:13;;;;;;;10.45;5.25;;;;;;;12.57;75.51;99630.03;1750549;82;21098;-82
2022/05/10 02:58:57;;;;;;;8.63;5.15;;;;;;;12.59;75.02;99633.45;1732883;82;20928;-80
2022/05/10 03:01:53;;;;;;;8.83;5.20;;;;;;;12.57;74.44;99629.58;1751105;82;20961;-81
2022/05/10 03:04:21;;;;;;;12.63;5.78;;;;;;;12.57;74.13;99633.95;1754774;81;21738;-79
2022/05/10 03:06:47;;;;;;;11.12;5.80;;;;;;;12.53;76.43;99637.95;1749348;82;21455;-81
2022/05/10 03:09:15;;;;;;;14.45;6.47;;;;;;;12.51;74.25;99642.34;1746880;82;20936;-82
2022/05/10 03:11:42;;;;;;;14.00;6.12;;;;;;;12.48;74.70;99639.80;1753495;81;21012;-80
2022/05/10 03:14:10;;;;;;;9.78;5.87;;;;;;;12.46;74.45;99645.50;1744339;82;21003;-81
2022/05/10 03:16:37;;;;;;;15.23;6.22;;;;;;;12.47;74.39;99645.05;1755371;81;21091;-81
2022/05/10 03:19:04;;;;;;;12.58;6.40;;;;;;;12.45;73.84;99652.05;1744017;81;21449;-78
2022/05/10 03:21:31;;;;;;;16.50;6.60;;;;;;;12.43;73.68;99643.41;1755397;82;21012;-80
2022/05/10 03:23:58;;;;;;;16.67;7.03;;;;;;;12.40;75.55;99650.86;1746100;81;20936;-81
2022/05/10 03:26:27;;;;;;;14.95;5.97;;;;;;;12.40;75.45;99643.04;1753787;82;21022;-81
2022/05/10 03:28:55;;;;;;;13.88;6.10;;;;;;;12.40;75.85;99644.34;1745311;82;20952;-80
2022/05/10 03:31:25;;;;;;;15.80;6.28;;;;;;;12.41;74.73;99645.20;1743731;82;21012;-81
2022/05/10 03:36:40;;;;;;;10.38;5.65;;;;;;;12.37;75.51;99644.41;1739604;82;21019;-79
2022/05/10 03:39:08;;;;;;;11.43;6.05;;;;;;;12.39;75.56;99643.07;1742827;81;21407;-80
2022/05/10 03:41:34;;;;;;;14.38;5.72;;;;;;;12.41;76.33;99645.20;1753769;80;21441;-80
2022/05/10 03:44:01;;;;;;;10.72;5.92;;;;;;;12.40;75.92;99648.26;1739444;81;20992;-78
2022/05/10 03:46:27;;;;;;;11.55;6.22;;;;;;;12.41;76.44;99647.34;1752444;81;20944;-80
2022/05/10 03:48:54;;;;;;;12.20;6.17;;;;;;;12.43;75.86;99644.25;1746230;81;21003;-79
2022/05/10 03:51:21;;;;;;;11.73;6.05;;;;;;;12.44;75.84;99639.92;1752865;81;21503;-82
2022/05/10 03:53:48;;;;;;;12.37;5.45;;;;;;;12.46;75.56;99644.65;1752855;81;21032;-79
2022/05/10 03:56:14;;;;;;;11.10;4.83;;;;;;;12.48;75.61;99641.10;1752954;81;20995;-82
2022/05/10 03:58:40;;;;;;;10.98;4.97;;;;;;;12.50;76.15;99640.62;1752840;81;21004;-78
2022/05/10 04:01:07;;;;;;;12.03;4.72;;;;;;;12.51;75.62;99636.25;1752834;82;21063;-79
2022/05/10 04:03:36;;;;;;;15.35;5.03;;;;;;;12.48;75.58;99642.41;1752902;82;20980;-78
2022/05/10 04:06:04;;;;;;;12.35;5.22;;;;;;;12.44;75.71;99643.37;1752879;82;21436;-80
2022/05/10 04:08:30;;;;;;;14.73;5.53;;;;;;;12.41;75.89;99643.44;1752824;81;20948;-81
2022/05/10 04:11:05;;;;;;;16.45;6.47;;;;;;;12.45;75.23;99642.47;1752890;81;21483;-79
2022/05/10 04:13:32;;;;;;;12.75;6.12;;;;;;;12.46;76.41;99646.80;1747601;81;20965;-78
2022/05/10 04:15:59;;;;;;;9.50;5.60;;;;;;;12.48;76.45;99648.08;1744507;82;21056;-81
2022/05/10 04:18:27;;;;;;;13.48;5.30;;;;;;;12.51;76.21;99648.87;1744400;82;21016;-81
2022/05/10 04:20:54;;;;;;;11.57;6.22;;;;;;;12.54;75.86;99647.47;1744489;82;21004;-83
2022/05/10 04:23:21;;;;;;;12.18;5.65;;;;;;;12.57;75.58;99654.81;1744534;82;21012;-81
2022/05/10 04:25:47;;;;;;;17.95;5.95;;;;;;;12.62;75.63;99655.11;1744490;82;20988;-81
2022/05/10 04:28:14;;;;;;;12.68;5.97;;;;;;;12.62;74.72;99652.50;1744466;82;20989;-81
2022/05/10 04:30:40;;;;;;;10.98;6.10;;;;;;;12.64;75.23;99655.08;1744556;82;21028;-80
2022/05/10 04:33:07;;;;;;;15.23;6.47;;;;;;;12.64;74.92;99656.39;1744531;82;20983;-80
2022/05/10 04:35:34;;;;;;;12.58;6.53;;;;;;;12.64;76.01;99659.84;1744542;82;21041;-80
2022/05/10 04:38:04;;;;;;;10.95;5.45;;;;;;;12.69;75.21;99662.33;1744478;82;21009;-79
2022/05/10 04:43:17;;;;;;;13.00;5.90;;;;;;;12.83;76.99;99659.38;1749994;82;21089;-81
2022/05/10 04:45:45;;;;;;;10.65;5.58;;;;;;;12.94;77.07;99663.89;1726398;82;21004;-81
2022/05/10 04:48:11;;;;;;;16.10;8.43;;;;;;;13.08;75.87;99670.05;1750356;82;21005;-82
2022/05/10 04:50:38;;;;;;;12.23;5.85;;;;;;;13.17;76.20;99655.47;1750326;81;21004;-81
2022/05/10 04:53:04;;;;;;;9.63;5.47;;;;;;;13.31;75.60;99659.89;1750323;81;21027;-80
2022/05/10 04:55:31;;;;;;;11.45;5.40;;;;;;;13.44;75.72;99663.47;1750236;81;20977;-80
2022/05/10 04:57:58;;;;;;;13.53;5.50;;;;;;;13.56;75.71;99661.81;1750330;82;20961;-78
2022/05/10 05:00:26;;;;;;;10.90;5.72;;;;;;;13.68;75.19;99660.15;1750223;81;21519;-81
2022/05/10 05:02:52;;;;;;;8.35;5.22;;;;;;;13.80;75.13;99664.17;1750092;81;21031;-78
2022/05/10 05:05:19;;;;;;;13.20;6.20;;;;;;;13.91;73.91;99666.02;1750361;81;21012;-78
2022/05/10 05:07:46;;;;;;;14.40;6.17;;;;;;;13.87;74.52;99668.78;1750277;81;20989;-81
2022/05/10 05:10:12;;;;;;;9.03;5.25;;;;;;;13.92;74.50;99666.41;1750271;81;21105;-79
2022/05/10 05:12:39;;;;;;;13.55;5.55;;;;;;;13.99;74.09;99665.80;1750380;82;21541;-81
2022/05/10 05:15:10;;;;;;;12.10;5.20;;;;;;;14.03;73.07;99666.11;1750468;82;20993;-82
2022/05/10 05:17:38;;;;;;;12.07;5.50;;;;;;;13.97;73.89;99666.76;1750200;81;21032;-80
2022/05/10 05:20:06;;;;;;;10.48;6.03;;;;;;;13.96;73.64;99669.80;1747160;82;21040;-80
2022/05/10 05:22:33;;;;;;;13.10;6.05;;;;;;;13.98;74.21;99670.61;1730263;82;20952;-80
2022/05/10 05:24:59;;;;;;;13.55;6.28;;;;;;;14.00;73.84;99664.88;1750541;81;20976;-80
2022/05/10 05:27:26;;;;;;;14.10;6.40;;;;;;;14.05;72.91;99664.77;1744030;81;21424;-77
2022/05/10 05:29:52;;;;;;;15.15;6.70;;;;;;;14.09;74.28;99663.31;1743330;82;21037;-78
2022/05/10 05:32:24;;;;;;;16.35;7.35;;;;;;;14.13;73.98;99662.77;1739007;81;20956;-78
2022/05/10 05:34:52;;;;;;;14.40;6.80;;;;;;;14.19;74.51;99660.42;1691649;84;21555;-81
2022/05/10 05:37:34;;;;;;;12.13;6.78;;;;;;;14.27;73.95;99668.88;1688422;84;20979;-80
2022/05/10 05:40:10;;;;;;;23.60;10.18;;;;;;;14.31;74.17;99663.50;1686634;84;20987;-79
2022/05/10 05:42:37;;;;;;;14.68;7.55;;;;;;;14.26;74.77;99663.23;1712214;82;21504;-78
2022/05/10 05:45:08;;;;;;;18.62;7.80;;;;;;;14.29;74.82;99667.08;1684200;84;20948;-79
2022/05/10 05:47:35;;;;;;;12.68;7.60;;;;;;;14.38;75.06;99656.77;1698486;84;21042;-79
2022/05/10 05:50:05;;;;;;;15.32;7.87;;;;;;;14.44;74.74;99663.11;1664875;85;20973;-78
2022/05/10 05:52:32;;;;;;;16.20;7.67;;;;;;;14.50;73.49;99659.86;1688524;84;21050;-79
2022/05/10 05:54:59;;;;;;;13.70;7.70;;;;;;;14.54;73.90;99654.05;1725325;82;21032;-81
2022/05/10 05:57:25;;;;;;;12.43;7.17;;;;;;;14.57;73.05;99654.00;1686090;84;20999;-81
2022/05/10 05:59:58;;;;;;;11.35;6.70;;;;;;;14.55;73.56;99654.47;1662390;85;20997;-81
2022/05/10 06:02:25;;;;;;;9.98;5.90;;;;;;;14.61;73.04;99653.45;1700357;84;21510;-82
2022/05/10 06:04:52;;;;;;;10.35;5.95;;;;;;;14.63;73.20;99652.95;1697923;84;20951;-78
2022/05/10 06:07:21;;;;;;;9.85;5.70;;;;;;;14.69;73.76;99654.90;1694431;84;20995;-78
2022/05/10 06:09:49;;;;;;;10.70;5.65;;;;;;;14.81;72.83;99656.72;1697999;83;21419;-78
2022/05/10 06:12:19;;;;;;;10.90;5.60;;;;;;;14.82;73.17;99650.13;1677433;85;21005;-82
2022/05/10 06:14:46;;;;;;;10.28;6.08;;;;;;;14.90;73.32;99642.87;1697400;84;20967;-78
2022/05/10 06:17:14;;;;;;;8.95;5.05;;;;;;;15.00;73.26;99648.65;1690079;85;21040;-79
2022/05/10 06:19:43;;;;;;;8.68;5.20;;;;;;;15.11;72.98;99645.18;1697095;84;21078;-79
2022/05/10 06:22:12;;;;;;;11.97;5.60;;;;;;;15.21;72.79;99646.18;1674141;85;21536;-80
2022/05/10 06:24:40;;;;;;;7.55;5.03;;;;;;;15.34;72.58;99650.09;1699013;84;21008;-81
2022/05/10 06:27:12;;;;;;;9.43;5.15;;;;;;;15.47;72.01;99647.86;1686337;84;20991;-79
2022/05/10 06:29:39;;;;;;;9.70;4.70;;;;;;;15.54;71.67;99647.17;1696872;84;20988;-80
2022/05/10 06:32:07;;;;;;;14.03;5.85;;;;;;;15.64;70.88;99647.26;1680317;84;21017;-78
2022/05/10 06:34:33;;;;;;;8.65;5.28;;;;;;;15.69;70.49;99645.30;1693910;84;20966;-79
2022/05/10 06:36:59;;;;;;;10.08;4.58;;;;;;;15.75;70.05;99652.13;1701760;84;21003;-79
2022/05/10 06:39:27;;;;;;;13.80;5.28;;;;;;;15.81;69.72;99650.58;1686063;85;20965;-79
2022/05/10 06:41:53;;;;;;;11.03;4.67;;;;;;;15.87;69.45;99641.17;1683793;84;20990;-79
2022/05/10 06:44:19;;;;;;;13.40;4.55;;;;;;;15.90;69.14;99645.84;1690511;84;21504;-79
2022/05/10 06:46:46;;;;;;;7.67;4.30;;;;;;;15.98;69.18;99642.93;1681820;84;21019;-80
2022/05/10 06:49:12;;;;;;;9.03;4.03;;;;;;;16.03;68.73;99639.66;1680417;84;21047;-79
2022/05/10 06:51:40;;;;;;;7.25;3.83;;;;;;;16.10;68.35;99645.53;1686293;85;21532;-78
2022/05/10 06:54:08;;;;;;;7.03;3.85;;;;;;;16.16;68.29;99636.11;1684241;84;21492;-80
2022/05/10 06:56:34;;;;;;;8.13;4.42;;;;;;;16.29;67.85;99641.72;1673725;84;21050;-80
2022/05/10 06:59:01;;;;;;;7.35;4.15;;;;;;;16.34;67.46;99634.53;1670115;85;21572;-78
2022/05/10 07:01:27;;;;;;;6.85;4.55;;;;;;;16.39;66.95;99640.89;1695552;84;21051;-78
2022/05/10 07:03:54;;;;;;;8.58;4.92;;;;;;;16.37;67.11;99646.20;1678513;84;21016;-78
2022/05/10 07:06:27;;;;;;;9.68;5.12;;;;;;;16.44;67.14;99641.11;1697811;83;21038;-78
2022/05/10 07:08:50;;;;;;;8.93;5.20;;;;;;;16.50;66.74;99638.23;1700848;84;20988;-82
2022/05/10 07:11:18;;;;;;;7.75;4.72;;;;;;;16.52;66.83;99642.11;1694291;84;20996;-80
2022/05/10 07:13:45;;;;;;;8.98;4.83;;;;;;;16.55;66.86;99631.94;1684166;84;20967;-79
2022/05/10 07:16:11;;;;;;;12.00;5.25;;;;;;;16.66;66.58;99635.83;1690448;84;21019;-81
2022/05/10 07:18:38;;;;;;;7.45;4.87;;;;;;;16.67;66.66;99630.98;1685602;84;21490;-81
2022/05/10 07:21:04;;;;;;;9.48;5.20;;;;;;;16.74;66.24;99635.98;1688314;84;20999;-80
2022/05/10 07:23:31;;;;;;;9.20;4.87;;;;;;;16.82;66.37;99624.73;1683950;84;20971;-80
2022/05/10 07:25:59;;;;;;;9.30;4.70;;;;;;;16.95;66.11;99626.36;1686183;84;20964;-80
2022/05/10 07:28:29;;;;;;;8.80;4.85;;;;;;;17.06;65.40;99626.76;1692178;84;20988;-79
2022/05/10 07:30:58;;;;;;;8.60;4.62;;;;;;;17.10;64.81;99628.33;1684717;84;20986;-78
2022/05/10 07:33:27;;;;;;;9.05;4.75;;;;;;;17.14;64.44;99625.96;1687220;83;21521;-78
2022/05/10 07:38:40;;;;;;;9.63;5.12;;;;;;;17.26;64.74;99621.48;1687260;84;21467;-79
2022/05/10 07:41:08;;;;;;;8.35;4.87;;;;;;;17.40;64.37;99622.64;1679070;84;21000;-79
2022/05/10 07:43:40;;;;;;;8.70;4.33;;;;;;;17.45;63.73;99612.80;1684601;84;21079;-79
2022/05/10 07:46:08;;;;;;;17.12;9.80;;;;;;;17.54;64.29;99617.61;1686067;85;21048;-79
2022/05/10 07:48:34;;;;;;;10.38;4.75;;;;;;;17.67;64.10;99613.51;1696261;84;21019;-79
2022/05/10 07:51:03;;;;;;;9.98;5.12;;;;;;;17.77;63.40;99610.47;1686333;85;21020;-76
2022/05/10 07:53:33;;;;;;;8.15;4.58;;;;;;;17.88;63.16;99606.41;1697429;84;20979;-78
2022/05/10 07:56:04;;;;;;;7.40;4.60;;;;;;;17.96;62.79;99607.84;1672864;84;21170;-76
2022/05/10 07:58:32;;;;;;;11.53;4.37;;;;;;;18.01;62.19;99601.44;1680900;85;21045;-77
2022/05/10 08:00:59;;;;;;;10.80;5.20;;;;;;;18.07;62.18;99599.83;1657157;85;21053;-77
2022/05/10 08:03:27;;;;;;;7.15;3.72;;;;;;;18.18;61.80;99603.72;1689206;84;21107;-79
2022/05/10 08:06:01;;;;;;;8.08;3.98;;;;;;;18.29;61.57;99599.64;1696398;84;20983;-78
2022/05/10 08:08:33;;;;;;;7.30;3.98;;;;;;;18.42;61.28;99597.28;1689607;84;20959;-81
2022/05/10 08:11:04;;;;;;;7.00;3.60;;;;;;;18.53;61.71;99598.05;1693560;84;21054;-80
2022/05/10 08:13:34;;;;;;;10.78;4.80;;;;;;;18.69;61.38;99593.70;1685744;85;21024;-80
2022/05/10 08:16:01;;;;;;;6.42;3.77;;;;;;;18.72;59.83;99591.84;1682935;84;20979;-79
2022/05/10 08:18:28;;;;;;;6.47;3.65;;;;;;;18.79;60.02;99588.86;1667344;85;21065;-80
2022/05/10 08:20:58;;;;;;;7.87;3.47;;;;;;;18.90;60.13;99597.98;1693466;84;20995;-78
2022/05/10 08:23:28;;;;;;;6.85;3.22;;;;;;;18.94;58.33;99592.95;1664016;85;21017;-77
2022/05/10 08:25:58;;;;;;;6.35;3.05;;;;;;;18.97;59.14;99594.12;1692468;84;21007;-79
2022/05/10 08:28:29;;;;;;;8.40;3.27;;;;;;;19.06;59.42;99585.75;1692204;84;21618;-76
2022/05/10 08:30:57;;;;;;;9.63;3.62;;;;;;;19.22;59.09;99576.09;1687709;84;20975;-80
2022/05/10 08:33:29;;;;;;;7.65;3.50;;;;;;;19.34;58.89;99578.55;1659350;85;21033;-79
2022/05/10 08:35:57;;;;;;;19.92;3.80;;;;;;;19.44;58.78;99581.06;1692992;84;20967;-81
2022/05/10 08:38:26;;;;;;;6.22;3.10;;;;;;;19.57;58.10;99582.56;1679952;84;20987;-82
2022/05/10 08:41:13;;;;;;;4.87;2.90;;;;;;;19.67;57.84;99586.39;1687847;84;21062;-78
2022/05/10 08:44:06;;;;;;;6.67;3.05;;;;;;;19.74;56.78;99577.73;1657804;85;20998;-79
2022/05/10 08:46:41;;;;;;;8.28;3.20;;;;;;;19.78;56.33;99571.81;1668555;85;21037;-79
2022/05/10 08:49:16;;;;;;;6.62;3.67;;;;;;;19.86;57.47;99566.96;1659669;84;21037;-79
2022/05/10 08:51:42;;;;;;;5.40;2.95;;;;;;;20.04;57.10;99570.35;1685688;85;21017;-79
2022/05/10 08:54:09;;;;;;;6.75;3.33;;;;;;;20.19;55.28;99565.97;1676364;83;21491;-80
2022/05/10 08:56:45;;;;;;;7.12;3.12;;;;;;;20.31;55.44;99577.14;1693629;84;21063;-77
2022/05/10 08:59:45;;;;;;;6.22;2.98;;;;;;;20.36;54.87;99568.98;1671988;84;21511;-79
2022/05/10 09:02:16;;;;;;;6.35;3.00;;;;;;;20.48;54.18;99563.45;1667613;84;21012;-79
2022/05/10 09:04:48;;;;;;;5.67;2.72;;;;;;;20.52;54.74;99567.13;1672492;84;20988;-78
2022/05/10 09:07:49;;;;;;;4.35;2.58;;;;;;;20.60;54.43;99565.41;1696812;84;21008;-78
2022/05/10 09:10:26;;;;;;;6.28;2.40;;;;;;;20.70;53.11;99566.55;1672508;84;21011;-79
2022/05/10 09:13:07;;;;;;;6.97;3.15;;;;;;;20.72;52.02;99562.02;1680160;85;20993;-79
2022/05/10 09:15:37;;;;;;;5.30;2.90;;;;;;;20.83;50.08;99563.56;1668728;84;20982;-79
2022/05/10 09:18:11;;;;;;;7.50;3.05;;;;;;;20.98;50.87;99553.00;1694319;84;21047;-79
2022/05/10 09:20:45;;;;;;;9.23;3.08;;;;;;;21.02;50.79;99547.91;1680562;84;21491;-76
2022/05/10 09:23:17;;;;;;;6.05;3.05;;;;;;;21.15;51.09;99544.02;1690612;84;20944;-79
2022/05/10 09:25:45;;;;;;;9.88;3.00;;;;;;;21.27;50.10;99541.97;1681038;84;20999;-79
2022/05/10 09:28:28;;;;;;;5.42;2.87;;;;;;;21.48;49.74;99545.56;1690670;84;20963;-79
2022/05/10 09:36:30;;;;;;;7.72;2.60;;;;;;;21.87;48.95;99542.65;1681344;84;21019;-79
2022/05/10 09:39:13;;;;;;;15.32;3.42;;;;;;;21.80;47.18;99540.37;1689288;84;20956;-79
2022/05/10 09:41:46;;;;;;;7.12;2.50;;;;;;;21.67;47.26;99534.19;1676599;84;21132;-79
2022/05/10 09:44:22;;;;;;;5.53;3.05;;;;;;;21.52;44.48;99536.48;1687657;84;21499;-79
2022/05/10 09:46:50;;;;;;;6.55;2.60;;;;;;;21.50;46.44;99535.73;1678620;84;21074;-79
2022/05/10 09:49:35;;;;;;;9.80;2.17;;;;;;;21.40;46.30;99531.45;1679724;84;21455;-81
2022/05/10 09:52:03;;;;;;;5.30;2.52;;;;;;;21.31;46.08;99535.54;1670906;84;21479;-80
2022/05/10 09:54:41;;;;;;;4.30;2.08;;;;;;;21.26;46.31;99527.03;1692792;84;20979;-80
2022/05/10 09:57:13;;;;;;;4.05;2.20;;;;;;;21.19;45.64;99519.97;1677548;84;20980;-81
2022/05/10 09:59:47;;;;;;;6.47;2.40;;;;;;;21.17;45.17;99516.56;1679761;84;20995;-80
2022/05/10 10:02:33;;;;;;;4.72;2.50;;;;;;;21.21;46.08;99519.40;1676076;84;21479;-79
2022/05/10 10:05:30;;;;;;;4.50;2.40;;;;;;;21.23;45.81;99515.34;1688355;84;21495;-79
2022/05/10 10:07:58;;;;;;;7.72;2.42;;;;;;;21.32;46.26;99508.61;1679655;84;21511;-80
2022/05/10 10:10:38;;;;;;;4.20;2.37;;;;;;;21.47;46.87;99501.08;1691984;84;20982;-79
2022/05/10 10:13:26;;;;;;;5.37;2.77;;;;;;;21.58;45.89;99506.98;1679698;84;20983;-80
2022/05/10 10:15:54;;;;;;;4.53;2.22;;;;;;;21.70;45.92;99498.25;1697878;84;21015;-79
2022/05/10 10:18:47;;;;;;;8.65;2.35;;;;;;;21.90;45.21;99490.81;1687741;84;21126;-80
2022/05/10 10:21:28;;;;;;;7.60;2.33;;;;;;;22.12;45.09;99477.00;1681413;85;20970;-81
2022/05/10 10:23:58;;;;;;;4.70;2.15;;;;;;;22.31;44.74;99474.86;1679443;85;21016;-78
2022/05/10 10:26:42;;;;;;;3.90;2.25;;;;;;;22.58;44.48;99459.34;1689671;83;20991;-80
2022/05/10 10:29:29;;;;;;;4.30;2.20;;;;;;;22.92;43.23;99467.59;1686694;84;21077;-80
2022/05/10 10:32:04;;;;;;;5.25;2.22;;;;;;;23.16;42.55;99456.62;1694577;84;20984;-80
2022/05/10 10:34:54;;;;;;;4.78;2.00;;;;;;;23.42;41.82;99461.86;1683458;84;20983;-80
2022/05/10 10:37:29;;;;;;;4.45;2.10;;;;;;;23.73;42.54;99455.13;1695275;84;20999;-80
2022/05/10 10:40:21;;;;;;;4.62;2.30;;;;;;;24.03;39.99;99459.14;1680001;84;21022;-80
2022/05/10 10:43:17;;;;;;;5.40;2.22;;;;;;;24.00;41.45;99447.44;1689249;84;21020;-79
2022/05/10 10:46:18;;;;;;;4.25;2.12;;;;;;;24.24;40.39;99451.86;1677000;84;20995;-79
2022/05/10 10:48:55;;;;;;;5.42;2.50;;;;;;;24.55;40.40;99438.41;1688970;84;21546;-79
2022/05/10 10:51:27;;;;;;;6.15;2.60;;;;;;;24.83;40.65;99443.77;1679339;84;20960;-79
2022/05/10 10:53:54;;;;;;;6.35;2.58;;;;;;;25.01;40.26;99438.80;1686289;84;21000;-81
2022/05/10 10:56:35;;;;;;;6.87;2.40;;;;;;;24.95;39.70;99443.28;1676685;84;20964;-76
2022/05/10 10:59:21;;;;;;;4.65;2.70;;;;;;;25.01;39.46;99449.44;1675456;84;20968;-78
2022/05/10 11:02:11;;;;;;;5.42;2.40;;;;;;;24.85;37.87;99456.45;1686771;84;20960;-78
2022/05/10 11:05:13;;;;;;;4.28;2.10;;;;;;;24.49;38.46;99453.47;1689024;84;21463;-78
2022/05/10 11:08:05;;;;;;;3.45;2.20;;;;;;;24.26;38.54;99468.05;1696875;84;21032;-80
2022/05/10 11:11:18;;;;;;;3.75;2.02;;;;;;;23.84;38.27;99465.48;1695922;84;20964;-79
2022/05/10 11:14:06;;;;;;;5.20;2.45;;;;;;;23.47;38.83;99480.09;1691504;84;21006;-80
2022/05/10 11:17:04;;;;;;;6.90;2.62;;;;;;;22.99;39.08;99478.98;1690227;84;21536;-79
2022/05/10 11:20:10;;;;;;;11.63;2.47;;;;;;;22.68;40.19;99485.60;1696362;84;20987;-77
2022/05/10 11:23:05;;;;;;;8.75;2.70;;;;;;;22.30;41.07;99490.36;1685359;85;21429;-78
2022/05/10 11:25:51;;;;;;;10.90;2.98;;;;;;;21.88;42.32;99507.27;1680343;84;22268;-80
2022/05/10 11:28:57;;;;;;;8.30;3.33;;;;;;;21.53;43.97;99511.26;1695733;84;20976;-78
2022/05/10 11:31:58;;;;;;;7.40;2.77;;;;;;;21.16;47.16;99520.63;1675248;84;21007;-79
2022/05/10 11:35:11;;;;;;;6.08;2.95;;;;;;;20.74;48.65;99517.87;1691675;84;21575;-80
2022/05/10 11:37:51;;;;;;;8.13;2.75;;;;;;;20.31;49.07;99528.30;1671544;84;21506;-79
2022/05/10 11:40:57;;;;;;;6.60;2.15;;;;;;;19.96;48.77;99527.23;1685222;85;21623;-79
2022/05/10 11:44:14;;;;;;;9.85;2.47;;;;;;;19.49;47.23;99520.16;1663400;83;21016;-78
2022/05/10 11:46:57;;;;;;;5.50;1.77;;;;;;;19.39;47.44;99517.66;1695553;83;21007;-80
2022/05/10 11:50:01;;;;;;;4.50;1.80;;;;;;;19.03;46.69;99516.06;1680451;84;21488;-80
2022/05/10 11:52:59;;;;;;;3.22;1.90;;;;;;;18.87;46.92;99510.28;1691453;84;21012;-80
2022/05/10 11:55:46;;;;;;;13.65;2.10;;;;;;;18.64;47.23;99498.30;1689653;84;20992;-80
2022/05/10 11:58:15;;;;;;;3.08;1.80;;;;;;;18.41;48.53;99511.80;1673455;84;20996;-78
2022/05/10 12:00:50;;;;;;;4.90;1.70;;;;;;;18.30;47.99;99495.20;1686702;84;20999;-78
2022/05/10 12:03:42;;;;;;;8.20;1.80;;;;;;;18.20;48.90;99500.55;1674525;85;21057;-78
2022/05/10 12:06:31;;;;;;;3.47;1.72;;;;;;;18.11;49.10;99485.25;1671845;85;21059;-80
2022/05/10 12:09:04;;;;;;;3.80;1.70;;;;;;;17.86;51.46;99490.37;1671068;84;21063;-78
2022/05/10 12:11:37;;;;;;;3.40;1.80;;;;;;;17.59;52.95;99482.87;1681929;84;21110;-80
2022/05/10 12:22:52;;;;;;;7.03;1.87;;;;;;;16.03;61.64;99487.55;1692968;84;20980;-75
2022/05/10 12:25:53;;;;;;;;;;;;;;;15.73;61.08;99496.67;1673325;84;21003;-76
2022/05/10 12:28:45;;;;;;;3.25;1.40;;;;;;;15.44;64.91;99490.78;1688370;84;20130;-77